createdAt,value
2019-02-21T00:00:59.959Z,102196.99
2019-02-21T00:03:29.293Z,102196.52
2019-02-21T00:05:58.650Z,102194.38
2019-02-21T00:08:28.018Z,102193.08
2019-02-21T00:10:57.392Z,102192.22
2019-02-21T00:13:26.718Z,102200.05
2019-02-21T00:15:56.057Z,102199.13
2019-02-21T00:18:25.410Z,102196.52
2019-02-21T00:20:54.753Z,102196.07
2019-02-21T00:23:24.141Z,102193.88
2019-02-21T00:25:55.763Z,102193.88
2019-02-21T00:28:24.601Z,102183.44
2019-02-21T00:30:53.990Z,102186.91
2019-02-21T00:33:25.427Z,102186.91
2019-02-21T00:35:54.790Z,102194.30
2019-02-21T00:38:24.127Z,102210.39
2019-02-21T00:40:53.482Z,102213.00
2019-02-21T00:43:22.866Z,102213.00
2019-02-21T00:45:52.223Z,102212.09
2019-02-21T00:48:21.567Z,102214.70
2019-02-21T00:50:50.929Z,102212.09
2019-02-21T00:53:20.254Z,102217.73
2019-02-21T00:55:49.606Z,102222.08
2019-02-21T00:58:18.946Z,102231.22
2019-02-21T01:00:48.308Z,102235.55
2019-02-21T01:03:17.675Z,102240.77
2019-02-21T01:05:47.077Z,102229.88
2019-02-21T01:08:16.477Z,102239.41
2019-02-21T01:10:45.838Z,102233.33
2019-02-21T01:13:15.201Z,102231.19
2019-02-21T01:15:44.538Z,102238.55
2019-02-21T01:18:13.882Z,102238.55
2019-02-21T01:20:43.434Z,102241.16
2019-02-21T01:23:12.763Z,102248.09
2019-02-21T01:25:42.122Z,102248.09
2019-02-21T01:28:11.453Z,102251.98
2019-02-21T01:30:40.811Z,102254.17
2019-02-21T01:33:10.169Z,102251.13
2019-02-21T01:35:39.514Z,102249.82
2019-02-21T01:38:08.844Z,102250.27
2019-02-21T01:40:38.201Z,102248.95
2019-02-21T01:43:07.530Z,102246.43
2019-02-21T01:45:36.881Z,102252.01
2019-02-21T01:48:06.197Z,102256.78
2019-02-21T01:50:35.516Z,102256.78
2019-02-21T01:53:04.940Z,102267.67
2019-02-21T01:55:34.316Z,102268.55
2019-02-21T01:58:03.776Z,102268.55
2019-02-21T02:00:33.220Z,102275.94
2019-02-21T02:03:02.567Z,102280.30
2019-02-21T02:05:31.915Z,102285.08
2019-02-21T02:08:01.287Z,102282.91
2019-02-21T02:10:30.808Z,102290.73
2019-02-21T02:13:00.157Z,102290.73
2019-02-21T02:15:29.518Z,102292.96
2019-02-21T02:17:58.842Z,102290.35
2019-02-21T02:20:28.149Z,102286.88
2019-02-21T02:22:57.498Z,102290.35
2019-02-21T02:25:26.819Z,102292.96
2019-02-21T02:27:56.180Z,102291.66
2019-02-21T02:30:25.513Z,102279.58
2019-02-21T02:32:54.849Z,102286.88
2019-02-21T02:35:24.205Z,102292.96
2019-02-21T02:37:53.586Z,102296.88
2019-02-21T02:40:22.931Z,102298.18
2019-02-21T02:42:52.274Z,102294.29
2019-02-21T02:45:21.622Z,102300.80
2019-02-21T02:47:50.960Z,102296.88
2019-02-21T02:50:20.299Z,102296.88
2019-02-21T02:52:49.624Z,102295.57
2019-02-21T02:55:18.988Z,102296.88
2019-02-21T02:57:48.326Z,102291.23
2019-02-21T03:00:17.685Z,102293.41
2019-02-21T03:02:47.017Z,102296.02
2019-02-21T03:05:16.387Z,102286.52
2019-02-21T03:07:45.755Z,102286.52
2019-02-21T03:10:15.260Z,102287.74
2019-02-21T03:12:44.612Z,102287.74
2019-02-21T03:15:13.974Z,102296.45
2019-02-21T03:17:43.304Z,102292.55
2019-02-21T03:20:12.697Z,102300.80
2019-02-21T03:22:42.036Z,102302.53
2019-02-21T03:25:11.599Z,102307.76
2019-02-21T03:27:40.935Z,102300.80
2019-02-21T03:30:12.423Z,102300.80
2019-02-21T03:32:41.823Z,102303.84
2019-02-21T03:35:11.234Z,102305.15
2019-02-21T03:37:40.620Z,102308.20
2019-02-21T03:40:10.197Z,102308.20
2019-02-21T03:42:39.642Z,102313.03
2019-02-21T03:45:09.790Z,102316.47
2019-02-21T03:47:39.139Z,102318.70
2019-02-21T03:50:08.854Z,102323.91
2019-02-21T03:52:38.178Z,102326.52
2019-02-21T03:55:07.936Z,102325.66
2019-02-21T03:57:37.503Z,102328.27
2019-02-21T04:00:07.202Z,102342.18
2019-02-21T04:02:36.697Z,102336.97
2019-02-21T04:05:06.249Z,102334.80
2019-02-21T04:07:35.621Z,102331.77
2019-02-21T04:10:05.196Z,102336.98
2019-02-21T04:12:34.517Z,102333.94
2019-02-21T04:15:04.767Z,102335.68
2019-02-21T04:17:34.157Z,102335.23
2019-02-21T04:20:03.504Z,102342.64
2019-02-21T04:22:32.942Z,102349.17
2019-02-21T04:25:02.298Z,102350.53
2019-02-21T04:27:31.681Z,102357.00
2019-02-21T04:30:01.041Z,102358.78
2019-02-21T04:32:30.396Z,102360.53
2019-02-21T04:34:59.758Z,102363.14
2019-02-21T04:37:29.089Z,102362.27
2019-02-21T04:39:58.468Z,102362.27
2019-02-21T04:42:27.812Z,102369.23
2019-02-21T04:44:57.170Z,102368.80
2019-02-21T04:47:26.500Z,102372.71
2019-02-21T04:49:55.852Z,102372.71
2019-02-21T04:52:25.160Z,102377.51
2019-02-21T04:54:54.510Z,102380.96
2019-02-21T04:57:23.875Z,102376.63
2019-02-21T04:59:53.274Z,102376.63
2019-02-21T05:02:29.017Z,102368.48
2019-02-21T05:04:53.703Z,102377.48
2019-02-21T05:07:23.052Z,102374.02
2019-02-21T05:09:57.901Z,102374.45
2019-02-21T05:12:23.523Z,102376.19
2019-02-21T05:14:52.886Z,102373.16
2019-02-21T05:17:22.196Z,102375.77
2019-02-21T05:19:51.538Z,102384.03
2019-02-21T05:22:20.935Z,102384.03
2019-02-21T05:24:50.280Z,102380.13
2019-02-21T05:27:26.263Z,102384.90
2019-02-21T05:29:55.624Z,102383.59
2019-02-21T05:32:55.785Z,102377.93
2019-02-21T05:35:42.234Z,102381.84
2019-02-21T05:38:30.522Z,102388.81
2019-02-21T05:41:21.846Z,102389.25
2019-02-21T05:44:19.202Z,102391.86
2019-02-21T05:46:55.890Z,102391.86
2019-02-21T05:49:33.962Z,102384.45
2019-02-21T05:52:16.681Z,102387.06
2019-02-21T05:54:58.437Z,102393.09
2019-02-21T05:57:52.546Z,102401.34
2019-02-21T06:00:46.925Z,102401.34
2019-02-21T06:03:36.138Z,102400.03
2019-02-21T06:06:17.229Z,102398.73
2019-02-21T06:08:56.810Z,102401.34
2019-02-21T06:11:51.246Z,102401.34
2019-02-21T06:14:37.010Z,102400.03
2019-02-21T06:17:23.417Z,102405.26
2019-02-21T06:20:14.730Z,102400.03
2019-02-21T06:23:05.843Z,102406.12
2019-02-21T06:25:50.842Z,102412.20
2019-02-21T06:28:30.841Z,102408.73
2019-02-21T06:31:03.184Z,102419.12
2019-02-21T06:33:32.545Z,102419.12
2019-02-21T06:36:01.885Z,102416.50
2019-02-21T06:38:33.464Z,102422.59
2019-02-21T06:41:02.351Z,102420.40
2019-02-21T06:43:32.293Z,102423.02
2019-02-21T06:46:01.624Z,102432.14
2019-02-21T06:48:30.963Z,102430.84
2019-02-21T06:51:00.327Z,102425.62
2019-02-21T06:53:30.048Z,102432.14
2019-02-21T06:55:59.390Z,102425.62
2019-02-21T06:58:28.743Z,102435.20
2019-02-21T07:00:58.089Z,102436.06
2019-02-21T07:03:29.087Z,102435.20
2019-02-21T07:05:58.454Z,102444.77
2019-02-21T07:08:27.807Z,102444.77
2019-02-21T07:11:05.942Z,102441.72
2019-02-21T07:13:28.236Z,102446.96
2019-02-21T07:15:58.536Z,102446.96
2019-02-21T07:18:30.310Z,102453.05
2019-02-21T07:20:59.637Z,102460.48
2019-02-21T07:23:32.682Z,102466.53
2019-02-21T07:26:03.166Z,102472.23
2019-02-21T07:28:32.500Z,102473.11
2019-02-21T07:31:01.885Z,102480.06
2019-02-21T07:33:31.194Z,102487.89
2019-02-21T07:36:00.555Z,102490.50
2019-02-21T07:38:29.902Z,102490.94
2019-02-21T07:40:59.303Z,102494.87
2019-02-21T07:43:28.663Z,102495.30
2019-02-21T07:45:58.051Z,102493.98
2019-02-21T07:48:27.387Z,102501.81
2019-02-21T07:50:56.743Z,102507.90
2019-02-21T07:53:26.069Z,102507.46
2019-02-21T07:55:55.906Z,102509.20
2019-02-21T07:58:25.257Z,102507.03
2019-02-21T08:00:54.590Z,102513.12
2019-02-21T08:03:30.293Z,102512.68
2019-02-21T08:05:55.059Z,102509.64
2019-02-21T08:08:24.413Z,102514.86
2019-02-21T08:10:53.799Z,102514.86
2019-02-21T08:13:23.179Z,102517.48
2019-02-21T08:15:53.207Z,102526.61
2019-02-21T08:18:22.594Z,102526.61
2019-02-21T08:20:51.981Z,102526.61
2019-02-21T08:23:21.374Z,102535.74
2019-02-21T08:25:50.778Z,102535.30
2019-02-21T08:28:20.158Z,102542.27
2019-02-21T08:30:49.529Z,102544.08
2019-02-21T08:33:31.666Z,102555.31
2019-02-21T08:36:01.015Z,102556.58
2019-02-21T08:38:30.383Z,102555.25
2019-02-21T08:40:59.734Z,102566.08
2019-02-21T08:43:29.130Z,102570.86
2019-02-21T08:45:58.503Z,102571.28
2019-02-21T08:48:27.843Z,102581.28
2019-02-21T08:50:57.221Z,102587.76
2019-02-21T08:53:28.140Z,102596.41
2019-02-21T08:55:57.712Z,102596.41
2019-02-21T08:58:27.091Z,102592.86
2019-02-21T09:00:56.430Z,102600.67
2019-02-21T09:03:25.748Z,102606.27
2019-02-21T09:05:55.118Z,102608.38
2019-02-21T09:08:33.141Z,102612.68
2019-02-21T09:10:55.558Z,102615.27
2019-02-21T09:13:24.928Z,102624.36
2019-02-21T09:15:55.965Z,102623.86
2019-02-21T09:18:25.393Z,102616.83
2019-02-21T09:20:54.756Z,102618.94
2019-02-21T09:23:24.091Z,102624.05
2019-02-21T09:25:53.608Z,102623.04
2019-02-21T09:28:22.890Z,102622.56
2019-02-21T09:30:52.256Z,102623.66
2019-02-21T09:33:21.786Z,102623.66
2019-02-21T09:35:51.220Z,102634.28
2019-02-21T09:38:20.551Z,102637.21
2019-02-21T09:40:49.961Z,102637.21
2019-02-21T09:43:19.248Z,102646.07
2019-02-21T09:45:48.630Z,102646.07
2019-02-21T09:48:17.989Z,102656.03
2019-02-21T09:50:47.317Z,102657.31
2019-02-21T09:53:16.699Z,102659.45
2019-02-21T09:55:46.032Z,102659.45
2019-02-21T09:58:15.384Z,102665.59
2019-02-21T10:00:44.741Z,102667.29
2019-02-21T10:03:14.085Z,102661.67
2019-02-21T10:05:43.413Z,102663.80
2019-02-21T10:08:12.785Z,102666.85
2019-02-21T10:10:42.140Z,102666.85
2019-02-21T10:13:13.309Z,102677.60
2019-02-21T10:15:43.040Z,102674.97
2019-02-21T10:18:12.413Z,102674.97
2019-02-21T10:20:41.770Z,102672.72
2019-02-21T10:23:11.147Z,102679.19
2019-02-21T10:25:40.476Z,102675.63
2019-02-21T10:28:09.854Z,102682.92
2019-02-21T10:30:39.198Z,102674.44
2019-02-21T10:33:08.597Z,102674.44
2019-02-21T10:35:37.936Z,102677.78
2019-02-21T10:38:07.260Z,102670.73
2019-02-21T10:40:36.643Z,102668.19
2019-02-21T10:43:06.006Z,102662.35
2019-02-21T10:45:35.433Z,102659.58
2019-02-21T10:48:04.794Z,102657.69
2019-02-21T10:50:34.111Z,102657.69
2019-02-21T10:53:03.478Z,102651.56
2019-02-21T10:55:32.828Z,102649.84
2019-02-21T10:58:02.154Z,102649.84
2019-02-21T11:00:31.591Z,102649.84
2019-02-21T11:03:01.063Z,102656.13
2019-02-21T11:05:30.433Z,102656.13
2019-02-21T11:07:59.782Z,102667.45
2019-02-21T11:10:29.300Z,102667.45
2019-02-21T11:12:58.653Z,102671.80
2019-02-21T11:15:28.032Z,102681.26
2019-02-21T11:17:57.367Z,102684.50
2019-02-21T11:20:26.736Z,102689.51
2019-02-21T11:22:56.083Z,102685.55
2019-02-21T11:25:25.458Z,102685.55
2019-02-21T11:27:54.921Z,102684.06
2019-02-21T11:30:24.299Z,102690.31
2019-02-21T11:32:53.617Z,102689.93
2019-02-21T11:35:22.972Z,102689.93
2019-02-21T11:37:52.349Z,102684.36
2019-02-21T11:40:21.698Z,102687.31
2019-02-21T11:42:51.048Z,102687.75
2019-02-21T11:45:20.813Z,102689.45
2019-02-21T11:47:50.193Z,102693.61
2019-02-21T11:50:19.669Z,102695.48
2019-02-21T11:52:49.030Z,102695.48
2019-02-21T11:55:19.848Z,102690.41
2019-02-21T11:57:49.230Z,102690.41
2019-02-21T12:00:23.192Z,102692.75
2019-02-21T12:02:52.538Z,102693.61
2019-02-21T12:05:30.568Z,102697.64
2019-02-21T12:07:52.998Z,102697.73
2019-02-21T12:10:22.544Z,102698.63
2019-02-21T12:12:51.901Z,102712.23
2019-02-21T12:15:21.264Z,102712.23
2019-02-21T12:17:50.673Z,102703.67
2019-02-21T12:20:20.044Z,102705.40
2019-02-21T12:22:49.485Z,102715.91
2019-02-21T12:25:18.897Z,102696.33
2019-02-21T12:27:48.238Z,102708.32
2019-02-21T12:30:18.277Z,102704.20
2019-02-21T12:32:47.776Z,102707.23
2019-02-21T12:35:28.828Z,102701.67
2019-02-21T12:37:48.638Z,102706.73
2019-02-21T12:40:18.746Z,102702.95
2019-02-21T12:42:48.115Z,102705.41
2019-02-21T12:45:18.767Z,102703.55
2019-02-21T12:47:52.759Z,102703.30
2019-02-21T12:50:19.301Z,102707.16
2019-02-21T12:52:48.671Z,102707.16
2019-02-21T12:55:26.976Z,102702.97
2019-02-21T12:57:49.088Z,102701.80
2019-02-21T13:00:18.986Z,102695.39
2019-02-21T13:02:48.312Z,102691.34
2019-02-21T13:05:17.796Z,102685.16
2019-02-21T13:07:47.153Z,102690.87
2019-02-21T13:10:17.671Z,102678.67
2019-02-21T13:12:46.978Z,102685.46
2019-02-21T13:15:16.346Z,102684.83
2019-02-21T13:17:45.737Z,102686.55
2019-02-21T13:20:15.538Z,102686.82
2019-02-21T13:22:44.886Z,102684.27
2019-02-21T13:25:14.239Z,102677.73
2019-02-21T13:27:43.604Z,102674.80
2019-02-21T13:30:14.668Z,102676.67
2019-02-21T13:32:44.018Z,102674.59
2019-02-21T13:35:13.561Z,102672.52
2019-02-21T13:37:42.895Z,102669.78
2019-02-21T13:40:13.402Z,102671.97
2019-02-21T13:42:42.871Z,102672.58
2019-02-21T13:45:13.019Z,102669.30
2019-02-21T13:47:42.388Z,102670.16
2019-02-21T13:50:13.788Z,102671.02
2019-02-21T13:52:43.111Z,102658.39
2019-02-21T13:55:12.455Z,102657.59
2019-02-21T13:57:41.769Z,102651.42
2019-02-21T14:00:13.842Z,102648.50
2019-02-21T14:02:43.178Z,102641.34
2019-02-21T14:05:12.525Z,102641.34
2019-02-21T14:07:41.853Z,102650.11
2019-02-21T14:10:11.529Z,102646.59
2019-02-21T14:12:40.961Z,102637.14
2019-02-21T14:15:12.916Z,102639.27
2019-02-21T14:17:42.321Z,102631.74
2019-02-21T14:20:12.227Z,102626.97
2019-02-21T14:22:41.565Z,102628.47
2019-02-21T14:25:10.995Z,102641.28
2019-02-21T14:27:40.347Z,102634.50
2019-02-21T14:30:12.215Z,102642.32
2019-02-21T14:32:41.561Z,102647.45
2019-02-21T14:35:11.726Z,102650.35
2019-02-21T14:37:41.064Z,102646.63
2019-02-21T14:40:11.087Z,102643.77
2019-02-21T14:42:40.430Z,102646.11
2019-02-21T14:45:12.490Z,102652.51
2019-02-21T14:47:41.971Z,102656.78
2019-02-21T14:50:11.483Z,102655.27
2019-02-21T14:52:40.842Z,102655.44
2019-02-21T14:55:11.027Z,102651.55
2019-02-21T14:57:41.408Z,102645.52
2019-02-21T15:00:15.322Z,102660.04
2019-02-21T15:02:44.659Z,102656.85
2019-02-21T15:05:14.178Z,102661.06
2019-02-21T15:07:43.502Z,102669.20
2019-02-21T15:10:12.975Z,102671.23
2019-02-21T15:12:42.315Z,102673.02
2019-02-21T15:15:12.973Z,102668.75
2019-02-21T15:17:42.358Z,102669.35
2019-02-21T15:20:12.751Z,102676.72
2019-02-21T15:22:42.078Z,102670.73
2019-02-21T15:25:11.414Z,102669.19
2019-02-21T15:27:40.768Z,102669.25
2019-02-21T15:30:12.577Z,102671.83
2019-02-21T15:32:44.679Z,102667.02
2019-02-21T15:35:12.953Z,102664.69
2019-02-21T15:37:44.831Z,102658.95
2019-02-21T15:40:13.548Z,102654.51
2019-02-21T15:42:42.857Z,102660.27
2019-02-21T15:45:22.439Z,102660.73
2019-02-21T15:47:45.277Z,102660.35
2019-02-21T15:50:14.636Z,102660.35
2019-02-21T15:52:44.323Z,102664.94
2019-02-21T15:55:14.516Z,102664.38
2019-02-21T15:57:43.875Z,102665.19
2019-02-21T16:00:15.103Z,102656.56
2019-02-21T16:02:44.515Z,102659.12
2019-02-21T16:05:13.948Z,102655.16
2019-02-21T16:07:43.293Z,102662.73
2019-02-21T16:10:14.646Z,102659.41
2019-02-21T16:12:44.503Z,102662.59
2019-02-21T16:15:16.452Z,102666.38
2019-02-21T16:17:45.634Z,102666.38
2019-02-21T16:20:15.235Z,102674.17
2019-02-21T16:22:44.726Z,102675.69
2019-02-21T16:25:16.244Z,102676.23
2019-02-21T16:27:45.561Z,102680.25
2019-02-21T16:30:15.404Z,102680.52
2019-02-21T16:32:44.760Z,102681.84
2019-02-21T16:35:14.158Z,102682.25
2019-02-21T16:37:43.594Z,102694.84
2019-02-21T16:40:13.511Z,102689.22
2019-02-21T16:42:42.870Z,102690.03
2019-02-21T16:45:13.128Z,102687.38
2019-02-21T16:47:42.461Z,102695.61
2019-02-21T16:50:12.596Z,102699.12
2019-02-21T16:52:41.946Z,102699.12
2019-02-21T16:55:13.439Z,102697.75
2019-02-21T16:57:42.833Z,102685.20
2019-02-21T17:00:13.381Z,102703.78
2019-02-21T17:02:42.746Z,102703.78
2019-02-21T17:05:12.304Z,102709.76
2019-02-21T17:07:42.318Z,102713.82
2019-02-21T17:10:14.268Z,102715.81
2019-02-21T17:12:43.620Z,102720.77
2019-02-21T17:15:13.364Z,102717.89
2019-02-21T17:17:42.698Z,102721.91
2019-02-21T17:20:13.361Z,102728.12
2019-02-21T17:22:42.721Z,102726.52
2019-02-21T17:25:13.498Z,102726.52
2019-02-21T17:27:42.878Z,102734.78
2019-02-21T17:30:14.691Z,102737.45
2019-02-21T17:32:44.009Z,102747.47
2019-02-21T17:35:13.575Z,102747.05
2019-02-21T17:37:42.897Z,102753.98
2019-02-21T17:40:14.776Z,102765.73
2019-02-21T17:42:44.126Z,102773.51
2019-02-21T17:45:13.514Z,102776.48
2019-02-21T17:47:43.095Z,102779.86
2019-02-21T17:50:13.570Z,102789.31
2019-02-21T17:52:44.236Z,102791.41
2019-02-21T17:55:15.558Z,102797.78
2019-02-21T17:57:44.933Z,102801.94
2019-02-21T18:00:17.525Z,102807.17
2019-02-21T18:02:46.963Z,102807.17
2019-02-21T18:05:16.336Z,102810.88
2019-02-21T18:07:45.687Z,102812.80
2019-02-21T18:10:15.145Z,102816.95
2019-02-21T18:12:44.500Z,102828.52
2019-02-21T18:15:14.189Z,102837.20
2019-02-21T18:17:43.599Z,102846.06
2019-02-21T18:20:13.382Z,102847.48
2019-02-21T18:22:42.711Z,102858.11
2019-02-21T18:25:25.022Z,102859.12
2019-02-21T18:27:54.340Z,102859.12
2019-02-21T18:30:23.695Z,102869.47
2019-02-21T18:32:53.246Z,102874.36
2019-02-21T18:35:22.565Z,102868.89
2019-02-21T18:37:52.006Z,102875.05
2019-02-21T18:40:21.661Z,102875.05
2019-02-21T18:42:52.041Z,102879.59
2019-02-21T18:45:21.414Z,102877.49
2019-02-21T18:47:50.770Z,102877.49
2019-02-21T18:50:21.325Z,102880.38
2019-02-21T18:52:50.695Z,102880.38
2019-02-21T18:55:20.038Z,102884.30
2019-02-21T18:57:56.889Z,102899.73
2019-02-21T19:00:26.348Z,102899.73
2019-02-21T19:02:55.775Z,102905.14
2019-02-21T19:05:35.295Z,102910.00
2019-02-21T19:08:04.176Z,102910.00
2019-02-21T19:10:30.187Z,102910.11
2019-02-21T19:12:59.534Z,102908.99
2019-02-21T19:15:29.328Z,102906.44
2019-02-21T19:17:58.673Z,102906.44
2019-02-21T19:20:28.071Z,102910.79
2019-02-21T19:22:57.455Z,102913.52
2019-02-21T19:25:26.798Z,102913.52
2019-02-21T19:27:56.190Z,102920.97
2019-02-21T19:30:34.431Z,102921.03
2019-02-21T19:33:03.766Z,102919.73
2019-02-21T19:35:33.112Z,102922.45
2019-02-21T19:38:09.824Z,102919.95
2019-02-21T19:40:33.886Z,102919.95
2019-02-21T19:43:03.226Z,102919.08
2019-02-21T19:45:32.675Z,102918.70
2019-02-21T19:48:04.083Z,102928.28
2019-02-21T19:50:34.151Z,102925.67
2019-02-21T19:53:03.408Z,102929.59
2019-02-21T19:55:32.911Z,102923.98
2019-02-21T19:58:02.257Z,102933.27
2019-02-21T20:00:32.716Z,102933.27
2019-02-21T20:03:02.073Z,102940.64
2019-02-21T20:05:31.447Z,102937.70
2019-02-21T20:08:08.221Z,102940.80
2019-02-21T20:10:31.860Z,102940.80
2019-02-21T20:13:02.483Z,102942.97
2019-02-21T20:15:31.794Z,102945.20
2019-02-21T20:18:01.211Z,102945.66
2019-02-21T20:20:30.582Z,102948.79
2019-02-21T20:22:59.942Z,102957.12
2019-02-21T20:25:29.286Z,102957.12
2019-02-21T20:27:58.631Z,102955.91
2019-02-21T20:30:28.034Z,102957.36
2019-02-21T20:32:57.379Z,102957.36
2019-02-21T20:35:26.719Z,102964.28
2019-02-21T20:37:56.168Z,102966.06
2019-02-21T20:40:25.560Z,102966.11
2019-02-21T20:42:54.914Z,102974.47
2019-02-21T20:45:24.900Z,102973.22
2019-02-21T20:47:54.178Z,102969.34
2019-02-21T20:50:23.514Z,102978.56
2019-02-21T20:52:52.883Z,102982.05
2019-02-21T20:55:22.216Z,102982.97
2019-02-21T20:57:51.576Z,102989.57
2019-02-21T21:00:21.010Z,102997.02
2019-02-21T21:02:50.353Z,103001.01
2019-02-21T21:05:19.668Z,103000.19
2019-02-21T21:07:50.285Z,103003.27
2019-02-21T21:10:19.731Z,103003.31
2019-02-21T21:12:49.092Z,103002.92
2019-02-21T21:15:18.410Z,103001.66
2019-02-21T21:17:47.753Z,103011.70
2019-02-21T21:20:17.532Z,103011.30
2019-02-21T21:22:47.129Z,103013.55
2019-02-21T21:25:16.515Z,103016.63
2019-02-21T21:27:45.865Z,103022.79
2019-02-21T21:30:15.732Z,103020.19
2019-02-21T21:32:45.119Z,103020.66
2019-02-21T21:35:14.662Z,103020.26
2019-02-21T21:37:44.011Z,103023.37
2019-02-21T21:40:13.906Z,103026.02
2019-02-21T21:42:43.249Z,103029.53
2019-02-21T21:45:14.966Z,103037.86
2019-02-21T21:47:44.317Z,103031.34
2019-02-21T21:50:15.019Z,103042.23
2019-02-21T21:52:44.387Z,103053.13
2019-02-21T21:55:14.518Z,103055.34
2019-02-21T21:57:44.175Z,103054.50
2019-02-21T22:00:18.049Z,103060.61
2019-02-21T22:02:47.549Z,103056.73
2019-02-21T22:05:17.008Z,103063.72
2019-02-21T22:07:49.071Z,103070.27
2019-02-21T22:10:17.557Z,103068.09
2019-02-21T22:12:46.908Z,103068.55
2019-02-21T22:15:16.300Z,103068.16
2019-02-21T22:17:45.654Z,103083.35
2019-02-21T22:20:15.037Z,103076.44
2019-02-21T22:22:44.416Z,103074.73
2019-02-21T22:25:13.992Z,103077.33
2019-02-21T22:27:43.372Z,103088.22
2019-02-21T22:30:14.447Z,103080.40
2019-02-21T22:32:43.819Z,103089.55
2019-02-21T22:35:13.138Z,103086.07
2019-02-21T22:37:42.494Z,103096.50
2019-02-21T22:40:12.718Z,103093.45
2019-02-21T22:42:42.069Z,103104.73
2019-02-21T22:45:11.660Z,103102.16
2019-02-21T22:47:41.133Z,103100.86
2019-02-21T22:50:12.556Z,103109.13
2019-02-21T22:52:41.923Z,103113.48
2019-02-21T22:55:11.468Z,103109.16
2019-02-21T22:57:40.776Z,103120.88
2019-02-21T23:01:03.298Z,103118.30
2019-02-21T23:04:18.214Z,103120.91
2019-02-21T23:06:57.137Z,103122.23
2019-02-21T23:09:28.108Z,103118.35
2019-02-21T23:11:57.707Z,103122.69
2019-02-21T23:14:27.053Z,103126.62
2019-02-21T23:16:56.375Z,103137.48
2019-02-21T23:19:25.727Z,103143.99
2019-02-21T23:21:55.110Z,103143.55
2019-02-21T23:24:24.484Z,103150.50
2019-02-21T23:26:53.842Z,103153.56
2019-02-21T23:29:23.170Z,103154.88
2019-02-21T23:31:52.510Z,103155.30
2019-02-21T23:34:31.990Z,103156.62
2019-02-21T23:37:01.351Z,103161.83
2019-02-21T23:39:37.797Z,103169.20
2019-02-21T23:42:01.761Z,103169.20
2019-02-21T23:44:31.080Z,103172.25
2019-02-21T23:47:00.513Z,103176.61
2019-02-21T23:49:29.870Z,103174.44
2019-02-21T23:51:59.182Z,103186.59
2019-02-21T23:54:28.494Z,103190.06
2019-02-21T23:56:57.836Z,103180.54
2019-02-21T23:59:27.171Z,103173.59
